• Join FlightAware (Why Join?)
  • Login
  • US Flag 
03:55PM EDT


 

Airport Tracker/Info


-or-


 

Live Flight TrackerFlight Track Log ✈ N333EB ✈ 11-Jun-2013 ✈ KAPA - KETN

Flight Track Log - Related Links

Times and Time Zones

All times are in EDT time to prevent confusion due to time zone crossing. See the N333EB flight status page for this flight to view local times or setup timezone preferences in your user account.

Time Position Orientation Groundspeed Altitude Reporting Facility
EDT Latitude Longitude Course Direction KTS MPH feet Rate Location/Type
02:13PM 39.5333 -104.8333 144° Southeast 180 207 6,900  Level Denver TRACON
02:14PM 39.5050 -104.8125 150° Southeast 191 220 8,400 1,800 Climbing Denver Center
02:15PM 39.4575 -104.7669 143° Southeast 213 245 10,000 1,740 Climbing Denver Center
02:16PM 39.3981 -104.7133 145° Southeast 243 280 12,000 1,860 Climbing Denver Center
02:17PM 39.3425 -104.6622 145° Southeast 247 284 13,900 1,980 Climbing Denver Center
02:18PM 39.2861 -104.6067 143° Southeast 253 291 16,200 1,860 Climbing Denver Center
02:19PM 39.1950 -104.4962 144° Southeast  Level Estimated
02:19PM 39.2233 -104.5475 144° Southeast 259 298 17,800  Level Denver Center
02:20PM 39.1614 -104.4892 144° Southeast 273 314 19,400 1,500 Climbing Denver Center
02:21PM 39.0972 -104.4444 152° Southeast 264 304 20,900 1,500 Climbing Denver Center
02:22PM 39.0158 -104.4269 171° South 264 304 22,600 1,440 Climbing Denver Center
02:23PM 38.9450 -104.4067 167° South 270 311 23,900 1,260 Climbing Denver Center
02:24PM 38.8597 -104.3831 168° South 277 319 25,300 1,260 Climbing Denver Center
02:25PM 38.7922 -104.3622 166° South 282 325 26,600 1,260 Climbing Denver Center
02:26PM 38.7164 -104.3328 163° South 285 328 27,900 1,200 Climbing Denver Center
02:28PM 38.6458 -104.2689 145° Southeast 305 351 29,100 1,320 Climbing Denver Center
02:29PM 38.5592 -104.1981 147° Southeast 307 353 30,700 900 Climbing Denver Center
02:30PM 38.4872 -104.1442 150° Southeast 302 348 31,000 180 Climbing Denver Center
02:31PM 38.4083 -104.0819 148° Southeast 331 381 31,200 660 Climbing Denver Center
02:32PM 38.3053 -104.0003 148° Southeast 340 391 32,500 1,020 Climbing Denver Center
02:33PM 38.2303 -103.9406 148° Southeast 333 383 33,400 960 Climbing Denver Center
02:34PM 38.1425 -103.8736 149° Southeast 330 380 34,500 780 Climbing Denver Center
02:35PM 38.0694 -103.8150 148° Southeast 325 374 35,000 240 Climbing Denver Center
02:36PM 37.9764 -103.7433 149° Southeast 346 398 35,000  Level Denver Center
02:37PM 37.8942 -103.6786 148° Southeast 360 414 35,000  Level Denver Center
02:38PM 37.7800 -103.5894 148° Southeast 375 432 35,000  Level Denver Center
02:39PM 37.6919 -103.5219 149° Southeast 383 441 35,000  Level Denver Center
02:40PM 37.6053 -103.4556 149° Southeast 379 436 35,000  Level Denver Center
02:41PM 37.5025 -103.3772 149° Southeast 382 440 35,000  Level Denver Center
02:42PM 37.4150 -103.3097 148° Southeast 384 442 35,000  Level Denver Center
02:43PM 37.3111 -103.2317 149° Southeast 387 445 35,000  Level Denver Center
02:44PM 37.2228 -103.1642 149° Southeast 388 447 35,000  Level Denver Center
02:45PM 37.1194 -103.0850 149° Southeast 390 449 35,000  Level Denver Center
02:46PM 37.0311 -103.0189 149° Southeast 388 447 35,000  Level Denver Center
02:48PM 36.9281 -102.9417 149° Southeast 387 445 35,000  Level Albuquerque Center
02:49PM 36.8244 -102.8636 149° Southeast 388 447 35,000  Level Albuquerque Center
02:50PM 36.7369 -102.7983 149° Southeast 384 442 35,000  Level Albuquerque Center
02:51PM 36.6497 -102.7339 149° Southeast 382 440 35,000  Level Albuquerque Center
02:52PM 36.5558 -102.6625 149° Southeast 378 435 35,000  Level Albuquerque Center
02:53PM 36.4642 -102.5947 149° Southeast 381 438 35,000  Level Albuquerque Center
02:54PM 36.3728 -102.5272 149° Southeast 383 441 35,000  Level Albuquerque Center
02:55PM 36.2639 -102.4467 149° Southeast 380 437 35,000  Level Albuquerque Center
02:56PM 36.1714 -102.3794 150° Southeast 385 443 35,000  Level Albuquerque Center
02:57PM 36.0814 -102.3117 149° Southeast 380 437 35,000  Level Albuquerque Center
02:58PM 35.9900 -102.2456 150° Southeast 382 440 35,000  Level Albuquerque Center
02:59PM 35.8983 -102.1786 149° Southeast 383 441 35,000  Level Albuquerque Center
03:00PM 35.8081 -102.1125 149° Southeast 380 437 35,000  Level Albuquerque Center
03:01PM 35.7175 -102.0467 149° Southeast 378 435 35,000  Level Albuquerque Center
03:02PM 35.6081 -101.9669 149° Southeast 380 437 35,000  Level Albuquerque Center
03:03PM 35.5175 -101.9011 149° Southeast 381 438 35,000  Level Albuquerque Center
03:04PM 35.4289 -101.8350 149° Southeast 374 430 35,000  Level Albuquerque Center
03:05PM 35.3361 -101.7686 150° Southeast 376 433 35,000  Level Albuquerque Center
03:06PM 35.2422 -101.7014 150° Southeast 382 440 35,000  Level Albuquerque Center
03:07PM 35.1581 -101.6139 140° Southeast 391 450 35,000  Level Albuquerque Center
03:08PM 35.0786 -101.5297 139° Southeast 383 441 35,000  Level Albuquerque Center
03:09PM 34.9967 -101.4433 139° Southeast 385 443 35,000  Level Albuquerque Center
03:10PM 34.9117 -101.3542 139° Southeast 386 444 35,000  Level Albuquerque Center
03:11PM 34.8319 -101.2692 139° Southeast 383 441 35,000  Level Albuquerque Center
03:12PM 34.7528 -101.1847 139° Southeast 381 438 35,000  Level Albuquerque Center
03:13PM 34.6558 -101.0822 139° Southeast 384 442 35,000  Level Albuquerque Center
03:14PM 34.5767 -100.9994 139° Southeast 379 436 35,000  Level Albuquerque Center
03:15PM 34.4967 -100.9156 139° Southeast 378 435 35,000  Level Albuquerque Center
03:16PM 34.4183 -100.8339 139° Southeast 382 440 35,000  Level Albuquerque Center
03:17PM 34.3700 -100.7825 139° Southeast 370 426 35,000  Level Fort Worth Center
03:18PM 34.2886 -100.6989 140° Southeast 370 426 35,000  Level Fort Worth Center
03:19PM 34.2094 -100.6128 138° Southeast 370 426 35,000 -180 Level Fort Worth Center
03:20PM 34.1261 -100.5319 141° Southeast 370 426 34,700 -600 Descending Fort Worth Center
03:21PM 34.0486 -100.4567 141° Southeast 380 437 33,800 -1,260 Descending Fort Worth Center
03:22PM 33.9633 -100.3633 138° Southeast 397 457 32,200 -1,800 Descending Fort Worth Center
03:23PM 33.8797 -100.2781 140° Southeast 397 457 30,200 -2,040 Descending Fort Worth Center
03:24PM 33.7939 -100.1878 139° Southeast 402 463 28,200 -2,040 Descending Fort Worth Center
03:25PM 33.7103 -100.1053 141° Southeast 402 463 26,200 -1,500 Descending Fort Worth Center
03:26PM 33.6244 -100.0178 140° Southeast 402 463 25,200 -1,020 Descending Fort Worth Center
03:27PM 33.5406 -99.9331 140° Southeast 402 463 24,200 -1,020 Descending Fort Worth Center
03:28PM 33.4608 -99.8511 139° Southeast 397 457 23,200 -960 Descending Fort Worth Center
03:29PM 33.3789 -99.7667 139° Southeast 397 457 22,300 -960 Descending Fort Worth Center
03:30PM 33.2989 -99.6900 141° Southeast 391 450 21,300 -1,020 Descending Fort Worth Center
03:31PM 33.2211 -99.6111 140° Southeast 380 437 20,300 -1,020 Descending Fort Worth Center
03:32PM 33.1453 -99.5297 138° Southeast 375 432 19,300 -1,020 Descending Fort Worth Center
03:33PM 33.0692 -99.4561 141° Southeast 370 426 18,300 -900 Descending Fort Worth Center
03:34PM 32.9933 -99.3800 140° Southeast 365 420 17,500 -960 Descending Fort Worth Center
03:35PM 32.9108 -99.3014 141° Southeast 359 413 16,400 -1,320 Descending Fort Worth Center
03:36PM 32.8411 -99.2308 140° Southeast 347 399 14,900 -1,800 Descending Fort Worth Center
03:37PM 32.7711 -99.1603 140° Southeast 341 392 12,900 -2,040 Descending Fort Worth Center